Maasdijk, Netherlands
Current Conditions -  °F | °C
As of 9:55 PM on Thursday 23 Oct 2014 (Local Time) from EHRD Reporting Station
Overcast Overcast  
Wind Chill: 55°   Ceiling: 3200
Heat Index: 55°   Visibility: 6mi
Dew Point: 48°   Wind: 16mph
Humidity: 77%   Direction: 210°SSW
Pressure: 30.12"   Gusts: NA
Location:  51.96°N, 4.21°E
Report Text: EHRD 231955Z AUTO 21014KT 180V240 9999 FEW020 SCT023 OVC03213/09 Q1020 NOSIG
Loading
Personal Weather Stations






























Interactive Weather Map
Tropical Storm Tracking
New forecast layout! Learn more

10-Day Weather Forecast

Advertisements
Track Severe Weather on mobile